sensor_id;sensor_type;location;lat;lon;timestamp;P1;durP1;ratioP1;P2;durP2;ratioP2
20884;SDS011;10602;48.000;9.654;2023-10-13T00:01:25;7.83;;;3.73;;
20884;SDS011;10602;48.000;9.654;2023-10-13T00:03:52;6.57;;;3.40;;
20884;SDS011;10602;48.000;9.654;2023-10-13T00:06:20;7.13;;;3.30;;
20884;SDS011;10602;48.000;9.654;2023-10-13T00:08:48;5.50;;;3.13;;
20884;SDS011;10602;48.000;9.654;2023-10-13T00:11:16;5.90;;;3.50;;
20884;SDS011;10602;48.000;9.654;2023-10-13T00:13:44;7.07;;;3.33;;
20884;SDS011;10602;48.000;9.654;2023-10-13T00:16:21;7.43;;;3.47;;
20884;SDS011;10602;48.000;9.654;2023-10-13T00:18:50;5.63;;;3.20;;
20884;SDS011;10602;48.000;9.654;2023-10-13T00:21:23;4.93;;;3.07;;
20884;SDS011;10602;48.000;9.654;2023-10-13T00:24:01;7.83;;;3.40;;
20884;SDS011;10602;48.000;9.654;2023-10-13T00:26:33;5.47;;;3.20;;
20884;SDS011;10602;48.000;9.654;2023-10-13T00:29:03;6.57;;;3.60;;
20884;SDS011;10602;48.000;9.654;2023-10-13T00:31:40;6.73;;;3.80;;
20884;SDS011;10602;48.000;9.654;2023-10-13T00:34:07;7.20;;;3.90;;
20884;SDS011;10602;48.000;9.654;2023-10-13T00:36:40;5.97;;;3.80;;
20884;SDS011;10602;48.000;9.654;2023-10-13T00:39:26;7.17;;;3.40;;
20884;SDS011;10602;48.000;9.654;2023-10-13T00:41:54;8.03;;;3.67;;
20884;SDS011;10602;48.000;9.654;2023-10-13T00:44:24;7.63;;;4.27;;
20884;SDS011;10602;48.000;9.654;2023-10-13T00:46:53;6.60;;;3.80;;
20884;SDS011;10602;48.000;9.654;2023-10-13T00:49:23;5.20;;;3.93;;
20884;SDS011;10602;48.000;9.654;2023-10-13T00:51:51;9.67;;;4.00;;
20884;SDS011;10602;48.000;9.654;2023-10-13T00:54:20;5.30;;;3.63;;
20884;SDS011;10602;48.000;9.654;2023-10-13T00:56:49;6.63;;;3.90;;
20884;SDS011;10602;48.000;9.654;2023-10-13T00:59:21;7.77;;;3.47;;
20884;SDS011;10602;48.000;9.654;2023-10-13T01:01:49;4.93;;;3.37;;
20884;SDS011;10602;48.000;9.654;2023-10-13T01:04:18;7.67;;;3.50;;
20884;SDS011;10602;48.000;9.654;2023-10-13T01:06:46;8.17;;;3.73;;
20884;SDS011;10602;48.000;9.654;2023-10-13T01:09:13;7.47;;;4.20;;
20884;SDS011;10602;48.000;9.654;2023-10-13T01:11:44;6.70;;;3.53;;
20884;SDS011;10602;48.000;9.654;2023-10-13T01:14:16;8.00;;;4.33;;
20884;SDS011;10602;48.000;9.654;2023-10-13T01:16:44;7.20;;;3.80;;
20884;SDS011;10602;48.000;9.654;2023-10-13T01:19:15;5.67;;;3.90;;
20884;SDS011;10602;48.000;9.654;2023-10-13T01:21:46;6.03;;;4.00;;
20884;SDS011;10602;48.000;9.654;2023-10-13T01:24:16;6.73;;;4.20;;
20884;SDS011;10602;48.000;9.654;2023-10-13T01:26:45;8.03;;;4.10;;
20884;SDS011;10602;48.000;9.654;2023-10-13T01:29:14;7.57;;;3.90;;
20884;SDS011;10602;48.000;9.654;2023-10-13T01:31:42;6.33;;;3.77;;
20884;SDS011;10602;48.000;9.654;2023-10-13T01:34:13;6.50;;;3.50;;
20884;SDS011;10602;48.000;9.654;2023-10-13T01:36:51;5.77;;;3.80;;
20884;SDS011;10602;48.000;9.654;2023-10-13T01:39:20;5.17;;;3.77;;
20884;SDS011;10602;48.000;9.654;2023-10-13T01:41:50;4.60;;;3.90;;
20884;SDS011;10602;48.000;9.654;2023-10-13T01:44:19;6.10;;;3.97;;
20884;SDS011;10602;48.000;9.654;2023-10-13T01:46:47;5.63;;;3.60;;
20884;SDS011;10602;48.000;9.654;2023-10-13T01:49:15;8.43;;;3.97;;
20884;SDS011;10602;48.000;9.654;2023-10-13T01:51:42;7.00;;;3.80;;
20884;SDS011;10602;48.000;9.654;2023-10-13T01:54:11;8.17;;;4.40;;
20884;SDS011;10602;48.000;9.654;2023-10-13T01:56:48;7.33;;;4.17;;
20884;SDS011;10602;48.000;9.654;2023-10-13T01:59:16;6.77;;;4.00;;
20884;SDS011;10602;48.000;9.654;2023-10-13T02:01:44;7.20;;;4.27;;
20884;SDS011;10602;48.000;9.654;2023-10-13T02:04:11;7.77;;;4.03;;
20884;SDS011;10602;48.000;9.654;2023-10-13T02:06:39;4.37;;;3.77;;
20884;SDS011;10602;48.000;9.654;2023-10-13T02:09:09;7.80;;;4.23;;
20884;SDS011;10602;48.000;9.654;2023-10-13T02:11:39;7.23;;;4.23;;
20884;SDS011;10602;48.000;9.654;2023-10-13T02:14:07;8.30;;;4.10;;
20884;SDS011;10602;48.000;9.654;2023-10-13T02:16:37;7.17;;;4.13;;
20884;SDS011;10602;48.000;9.654;2023-10-13T02:19:07;9.53;;;4.00;;
20884;SDS011;10602;48.000;9.654;2023-10-13T02:21:35;9.87;;;4.10;;
20884;SDS011;10602;48.000;9.654;2023-10-13T02:24:08;8.87;;;4.60;;
20884;SDS011;10602;48.000;9.654;2023-10-13T02:26:46;7.90;;;3.90;;
20884;SDS011;10602;48.000;9.654;2023-10-13T02:29:14;6.27;;;4.40;;
20884;SDS011;10602;48.000;9.654;2023-10-13T02:31:43;6.90;;;4.20;;
20884;SDS011;10602;48.000;9.654;2023-10-13T02:34:12;8.27;;;4.70;;
20884;SDS011;10602;48.000;9.654;2023-10-13T02:36:40;7.70;;;4.70;;
20884;SDS011;10602;48.000;9.654;2023-10-13T02:39:12;6.27;;;3.80;;
20884;SDS011;10602;48.000;9.654;2023-10-13T02:41:41;9.10;;;4.70;;
20884;SDS011;10602;48.000;9.654;2023-10-13T02:44:11;10.40;;;4.70;;
20884;SDS011;10602;48.000;9.654;2023-10-13T02:46:40;8.87;;;4.63;;
20884;SDS011;10602;48.000;9.654;2023-10-13T02:49:09;7.63;;;4.90;;
20884;SDS011;10602;48.000;9.654;2023-10-13T02:51:37;11.30;;;4.20;;
20884;SDS011;10602;48.000;9.654;2023-10-13T02:54:06;7.47;;;4.93;;
20884;SDS011;10602;48.000;9.654;2023-10-13T02:56:38;5.90;;;4.37;;
20884;SDS011;10602;48.000;9.654;2023-10-13T02:59:11;6.93;;;4.50;;
20884;SDS011;10602;48.000;9.654;2023-10-13T03:01:44;7.53;;;4.67;;
20884;SDS011;10602;48.000;9.654;2023-10-13T03:04:09;8.73;;;4.37;;
20884;SDS011;10602;48.000;9.654;2023-10-13T03:06:39;14.23;;;4.50;;
20884;SDS011;10602;48.000;9.654;2023-10-13T03:09:08;6.23;;;4.40;;
20884;SDS011;10602;48.000;9.654;2023-10-13T03:11:48;6.97;;;4.63;;
20884;SDS011;10602;48.000;9.654;2023-10-13T03:14:22;6.30;;;4.20;;
20884;SDS011;10602;48.000;9.654;2023-10-13T03:16:52;7.00;;;4.40;;
20884;SDS011;10602;48.000;9.654;2023-10-13T03:19:21;8.30;;;4.37;;
20884;SDS011;10602;48.000;9.654;2023-10-13T03:21:48;7.67;;;4.47;;
20884;SDS011;10602;48.000;9.654;2023-10-13T03:24:26;6.97;;;4.27;;
20884;SDS011;10602;48.000;9.654;2023-10-13T03:27:02;9.13;;;4.47;;
20884;SDS011;10602;48.000;9.654;2023-10-13T03:29:45;6.67;;;4.43;;
20884;SDS011;10602;48.000;9.654;2023-10-13T03:32:14;6.27;;;3.97;;
20884;SDS011;10602;48.000;9.654;2023-10-13T03:34:46;5.10;;;3.80;;
20884;SDS011;10602;48.000;9.654;2023-10-13T03:37:22;6.67;;;4.00;;
20884;SDS011;10602;48.000;9.654;2023-10-13T03:40:07;7.97;;;4.07;;
20884;SDS011;10602;48.000;9.654;2023-10-13T03:42:56;6.67;;;4.80;;
20884;SDS011;10602;48.000;9.654;2023-10-13T03:45:33;7.60;;;4.27;;
20884;SDS011;10602;48.000;9.654;2023-10-13T03:48:12;8.93;;;4.23;;
20884;SDS011;10602;48.000;9.654;2023-10-13T03:50:54;6.87;;;4.53;;
20884;SDS011;10602;48.000;9.654;2023-10-13T03:53:31;5.50;;;4.47;;
20884;SDS011;10602;48.000;9.654;2023-10-13T03:56:00;7.87;;;4.40;;
20884;SDS011;10602;48.000;9.654;2023-10-13T03:58:35;6.00;;;4.13;;
20884;SDS011;10602;48.000;9.654;2023-10-13T04:01:05;6.70;;;4.37;;
20884;SDS011;10602;48.000;9.654;2023-10-13T04:06:25;7.73;;;4.37;;
20884;SDS011;10602;48.000;9.654;2023-10-13T04:09:15;4.50;;;3.97;;
20884;SDS011;10602;48.000;9.654;2023-10-13T04:12:03;6.90;;;4.50;;
20884;SDS011;10602;48.000;9.654;2023-10-13T04:14:29;7.30;;;4.17;;
20884;SDS011;10602;48.000;9.654;2023-10-13T04:17:19;8.70;;;5.03;;
20884;SDS011;10602;48.000;9.654;2023-10-13T04:19:51;7.90;;;4.07;;
20884;SDS011;10602;48.000;9.654;2023-10-13T04:22:34;6.70;;;4.20;;
20884;SDS011;10602;48.000;9.654;2023-10-13T04:25:25;8.93;;;4.13;;
20884;SDS011;10602;48.000;9.654;2023-10-13T04:27:56;8.03;;;4.67;;
20884;SDS011;10602;48.000;9.654;2023-10-13T04:30:49;8.17;;;4.43;;
20884;SDS011;10602;48.000;9.654;2023-10-13T04:33:27;5.57;;;4.63;;
20884;SDS011;10602;48.000;9.654;2023-10-13T04:36:05;6.43;;;4.47;;
20884;SDS011;10602;48.000;9.654;2023-10-13T04:38:44;8.33;;;4.67;;
20884;SDS011;10602;48.000;9.654;2023-10-13T04:41:39;8.60;;;4.70;;
20884;SDS011;10602;48.000;9.654;2023-10-13T04:44:14;7.10;;;4.43;;
20884;SDS011;10602;48.000;9.654;2023-10-13T04:47:00;6.57;;;4.83;;
20884;SDS011;10602;48.000;9.654;2023-10-13T04:49:32;8.47;;;5.17;;
20884;SDS011;10602;48.000;9.654;2023-10-13T04:52:02;6.30;;;3.90;;
20884;SDS011;10602;48.000;9.654;2023-10-13T04:54:43;5.97;;;4.27;;
20884;SDS011;10602;48.000;9.654;2023-10-13T04:57:22;7.87;;;4.50;;
20884;SDS011;10602;48.000;9.654;2023-10-13T05:00:09;6.30;;;4.60;;
20884;SDS011;10602;48.000;9.654;2023-10-13T05:02:39;9.73;;;4.97;;
20884;SDS011;10602;48.000;9.654;2023-10-13T05:05:11;7.43;;;4.50;;
20884;SDS011;10602;48.000;9.654;2023-10-13T05:07:53;6.77;;;4.90;;
20884;SDS011;10602;48.000;9.654;2023-10-13T05:10:39;9.47;;;4.73;;
20884;SDS011;10602;48.000;9.654;2023-10-13T05:13:33;7.67;;;4.60;;
20884;SDS011;10602;48.000;9.654;2023-10-13T05:16:20;7.73;;;5.17;;
20884;SDS011;10602;48.000;9.654;2023-10-13T05:19:07;9.17;;;5.07;;
